Time;durP1;ratioP1;P1;durP2;ratioP2;P2;SDS_P1;SDS_P2;PMS_P1;PMS_P2;Temp;Humidity;BMP_temperature;BMP_pressure;BME280_temperature;BME280_humidity;BME280_pressure;Samples;Min_cycle;Max_cycle;Signal;HPM_P1;HPM_P2
2022/10/15 00:00:46;;;;;;;5.83;5.30;;;;;;;;;;4986008;28;20183;-52
2022/10/15 00:03:20;;;;;;;6.43;5.53;;;;;;;;;;4971352;28;20183;-52
2022/10/15 00:05:46;;;;;;;5.83;5.23;;;;;;;;;;4963878;28;20682;-52
2022/10/15 00:08:12;;;;;;;6.43;5.83;;;;;;;;;;4951390;28;20727;-52
2022/10/15 00:10:38;;;;;;;6.23;5.60;;;;;;;;;;4966504;28;20227;-52
2022/10/15 00:13:05;;;;;;;6.17;5.60;;;;;;;;;;4965793;28;20667;-52
2022/10/15 00:15:31;;;;;;;5.50;5.00;;;;;;;;;;4946394;28;20754;-52
2022/10/15 00:17:58;;;;;;;7.33;5.97;;;;;;;;;;4967747;28;20180;-52
2022/10/15 00:20:24;;;;;;;6.27;5.27;;;;;;;;;;4966958;28;20270;-52
2022/10/15 00:22:50;;;;;;;6.33;5.73;;;;;;;;;;4965469;28;20179;-52
2022/10/15 00:25:16;;;;;;;5.60;5.10;;;;;;;;;;4965418;28;20545;-52
2022/10/15 00:27:42;;;;;;;5.23;4.73;;;;;;;;;;4966531;28;20180;-52
2022/10/15 00:30:08;;;;;;;6.73;5.60;;;;;;;;;;4967785;28;20183;-52
2022/10/15 00:32:34;;;;;;;5.53;5.07;;;;;;;;;;4967428;28;20266;-52
2022/10/15 00:35:00;;;;;;;5.57;5.13;;;;;;;;;;4964088;28;20182;-52
2022/10/15 00:37:26;;;;;;;6.77;6.10;;;;;;;;;;4949987;28;20550;-52
2022/10/15 00:39:52;;;;;;;5.20;4.80;;;;;;;;;;4965160;28;20583;-52
2022/10/15 00:42:18;;;;;;;5.83;5.37;;;;;;;;;;4967347;28;20207;-52
2022/10/15 00:44:50;;;;;;;5.40;5.00;;;;;;;;;;4948365;28;20568;-52
2022/10/15 00:47:20;;;;;;;5.10;4.70;;;;;;;;;;4943050;28;20393;-52
2022/10/15 00:49:46;;;;;;;5.23;4.83;;;;;;;;;;4965578;28;20659;-52
2022/10/15 00:52:15;;;;;;;5.70;5.20;;;;;;;;;;4960138;28;20203;-52
2022/10/15 00:54:44;;;;;;;6.00;5.37;;;;;;;;;;4956607;28;20629;-52
2022/10/15 00:57:10;;;;;;;5.47;4.97;;;;;;;;;;4961208;28;20190;-52
2022/10/15 00:59:39;;;;;;;6.73;5.43;;;;;;;;;;4966651;28;20211;-52
2022/10/15 01:02:06;;;;;;;5.40;4.90;;;;;;;;;;4966958;28;20194;-52
2022/10/15 01:04:32;;;;;;;5.30;4.80;;;;;;;;;;4970095;28;20798;-52
2022/10/15 01:06:59;;;;;;;6.47;5.20;;;;;;;;;;4966684;28;20208;-52
2022/10/15 01:09:25;;;;;;;5.60;5.10;;;;;;;;;;4966972;28;20180;-53
2022/10/15 01:11:52;;;;;;;5.70;4.80;;;;;;;;;;4962079;28;20495;-53
2022/10/15 01:14:21;;;;;;;5.57;4.97;;;;;;;;;;4965283;28;20188;-53
2022/10/15 01:16:47;;;;;;;5.40;4.93;;;;;;;;;;4965463;28;20219;-53
2022/10/15 01:19:31;;;;;;;5.20;4.70;;;;;;;;;;4967619;28;20194;-53
2022/10/15 01:22:00;;;;;;;5.50;5.00;;;;;;;;;;4966632;28;20529;-52
2022/10/15 01:24:32;;;;;;;4.77;4.37;;;;;;;;;;4967519;28;20215;-53
2022/10/15 01:27:15;;;;;;;5.13;4.67;;;;;;;;;;4969535;28;20582;-52
2022/10/15 01:29:59;;;;;;;5.10;4.67;;;;;;;;;;4960643;28;20262;-52
2022/10/15 01:32:32;;;;;;;5.23;4.73;;;;;;;;;;4970942;28;20655;-53
2022/10/15 01:35:13;;;;;;;5.20;4.80;;;;;;;;;;4971391;28;20189;-53
2022/10/15 01:37:49;;;;;;;4.63;4.23;;;;;;;;;;4969264;28;20259;-52
2022/10/15 01:40:34;;;;;;;5.37;4.87;;;;;;;;;;4972039;28;20228;-52
2022/10/15 01:43:02;;;;;;;4.87;4.47;;;;;;;;;;4954327;28;20610;-51
2022/10/15 01:45:37;;;;;;;5.60;5.07;;;;;;;;;;4967419;28;20278;-52
2022/10/15 01:48:10;;;;;;;5.30;4.80;;;;;;;;;;4965488;28;20192;-52
2022/10/15 01:50:39;;;;;;;4.83;4.43;;;;;;;;;;4967513;28;20294;-51
2022/10/15 01:53:07;;;;;;;6.80;5.57;;;;;;;;;;4968576;28;20186;-52
2022/10/15 01:55:34;;;;;;;5.27;4.73;;;;;;;;;;4966484;28;20549;-52
2022/10/15 01:58:01;;;;;;;5.07;4.60;;;;;;;;;;4968224;28;20516;-52
2022/10/15 02:00:27;;;;;;;4.87;4.40;;;;;;;;;;4963098;28;20279;-52
2022/10/15 02:02:58;;;;;;;5.23;4.73;;;;;;;;;;4966556;28;20757;-53
2022/10/15 02:05:26;;;;;;;5.50;5.00;;;;;;;;;;4976041;28;20302;-53
2022/10/15 02:08:11;;;;;;;5.27;4.87;;;;;;;;;;4966197;28;20188;-52
2022/10/15 02:10:37;;;;;;;5.63;5.13;;;;;;;;;;4958284;28;20725;-52
2022/10/15 02:13:24;;;;;;;5.73;5.23;;;;;;;;;;4940177;28;20651;-52
2022/10/15 02:16:03;;;;;;;5.70;5.13;;;;;;;;;;4969420;28;20183;-52
2022/10/15 02:18:35;;;;;;;5.60;5.10;;;;;;;;;;4961287;28;20657;-52
2022/10/15 02:21:22;;;;;;;5.43;4.80;;;;;;;;;;4951144;28;20183;-52
2022/10/15 02:23:58;;;;;;;5.90;5.40;;;;;;;;;;4942260;28;20196;-52
2022/10/15 02:26:25;;;;;;;5.77;5.27;;;;;;;;;;4965661;28;20212;-51
2022/10/15 02:28:55;;;;;;;7.30;5.70;;;;;;;;;;4962037;28;20188;-52
2022/10/15 02:31:22;;;;;;;5.50;5.00;;;;;;;;;;4966172;28;20232;-52
2022/10/15 02:33:49;;;;;;;5.20;4.77;;;;;;;;;;4960122;28;20465;-52
2022/10/15 02:36:16;;;;;;;6.07;5.47;;;;;;;;;;4975846;28;20188;-52
2022/10/15 02:38:43;;;;;;;5.43;5.03;;;;;;;;;;4964255;28;20202;-53
2022/10/15 02:41:09;;;;;;;6.03;5.43;;;;;;;;;;4973187;28;20227;-53
2022/10/15 02:43:36;;;;;;;6.57;5.97;;;;;;;;;;4963821;28;20229;-52
2022/10/15 02:46:02;;;;;;;7.27;6.63;;;;;;;;;;4975484;28;20207;-53
2022/10/15 02:48:28;;;;;;;6.70;6.03;;;;;;;;;;4971289;28;20445;-53
2022/10/15 02:50:54;;;;;;;6.10;5.50;;;;;;;;;;4972399;28;21002;-52
2022/10/15 02:53:20;;;;;;;6.17;5.57;;;;;;;;;;4970045;28;20657;-52
2022/10/15 02:55:46;;;;;;;6.30;5.80;;;;;;;;;;4964010;28;20651;-52
2022/10/15 02:58:12;;;;;;;7.13;6.30;;;;;;;;;;4961606;28;20639;-52
2022/10/15 03:00:38;;;;;;;6.23;5.73;;;;;;;;;;4973862;28;20198;-52
2022/10/15 03:03:04;;;;;;;6.07;5.57;;;;;;;;;;4965986;28;20651;-52
2022/10/15 03:05:31;;;;;;;6.43;5.60;;;;;;;;;;4984717;28;20230;-52
2022/10/15 03:07:58;;;;;;;6.40;5.90;;;;;;;;;;4988226;28;20670;-52
2022/10/15 03:10:24;;;;;;;6.50;5.90;;;;;;;;;;4987794;28;20183;-52
2022/10/15 03:12:50;;;;;;;6.80;6.13;;;;;;;;;;4986763;28;20266;-52
2022/10/15 03:15:17;;;;;;;6.80;6.20;;;;;;;;;;4986947;28;20187;-53
2022/10/15 03:17:43;;;;;;;6.83;6.23;;;;;;;;;;4987182;28;20567;-53
2022/10/15 03:20:09;;;;;;;5.83;5.07;;;;;;;;;;4986812;28;20195;-53
2022/10/15 03:22:35;;;;;;;5.60;5.10;;;;;;;;;;4986784;28;20206;-52
2022/10/15 03:25:01;;;;;;;6.23;5.53;;;;;;;;;;4987327;28;20595;-53
2022/10/15 03:27:27;;;;;;;6.77;6.17;;;;;;;;;;4987524;28;20555;-53
2022/10/15 03:29:53;;;;;;;6.77;6.17;;;;;;;;;;4986655;28;20269;-52
2022/10/15 03:32:19;;;;;;;6.93;6.33;;;;;;;;;;4970847;28;20191;-52
2022/10/15 03:34:45;;;;;;;6.00;5.50;;;;;;;;;;4985458;28;20179;-52
2022/10/15 03:37:11;;;;;;;6.40;5.90;;;;;;;;;;4987482;28;20542;-53
2022/10/15 03:39:37;;;;;;;7.40;6.70;;;;;;;;;;4987032;28;20230;-52
2022/10/15 03:42:04;;;;;;;7.27;6.67;;;;;;;;;;4970365;28;20815;-52
2022/10/15 03:44:30;;;;;;;6.90;6.13;;;;;;;;;;4987249;28;20498;-52
2022/10/15 03:46:56;;;;;;;5.97;5.47;;;;;;;;;;4986992;28;20641;-52
2022/10/15 03:49:22;;;;;;;7.17;6.53;;;;;;;;;;4988530;28;20215;-53
2022/10/15 03:51:48;;;;;;;7.23;6.63;;;;;;;;;;4967307;28;20257;-53
2022/10/15 03:54:14;;;;;;;7.43;6.73;;;;;;;;;;4969311;28;20258;-53
2022/10/15 03:56:40;;;;;;;6.97;6.30;;;;;;;;;;4986236;28;20187;-52
2022/10/15 03:59:06;;;;;;;7.27;6.57;;;;;;;;;;4983270;28;20183;-53
2022/10/15 04:01:32;;;;;;;7.20;6.60;;;;;;;;;;4986722;28;20183;-52
2022/10/15 04:03:58;;;;;;;8.07;6.83;;;;;;;;;;4985982;28;20231;-52
2022/10/15 04:06:24;;;;;;;7.83;7.13;;;;;;;;;;4967742;28;20215;-53
2022/10/15 04:08:50;;;;;;;7.53;6.83;;;;;;;;;;4977615;28;20206;-53
2022/10/15 04:11:16;;;;;;;7.40;6.67;;;;;;;;;;4974027;28;20610;-53
2022/10/15 04:13:42;;;;;;;8.13;7.43;;;;;;;;;;4969149;28;20184;-52
2022/10/15 04:16:09;;;;;;;9.40;7.93;;;;;;;;;;4978672;28;20651;-53
2022/10/15 04:18:35;;;;;;;8.27;7.47;;;;;;;;;;4966546;28;20187;-53
2022/10/15 04:21:02;;;;;;;8.60;7.70;;;;;;;;;;4952512;28;20194;-52
2022/10/15 04:23:28;;;;;;;7.93;7.13;;;;;;;;;;4974492;28;20528;-53
2022/10/15 04:25:58;;;;;;;7.87;7.07;;;;;;;;;;4974134;28;20287;-53
2022/10/15 04:28:24;;;;;;;8.17;7.37;;;;;;;;;;4979771;28;20237;-53
2022/10/15 04:30:50;;;;;;;8.23;7.50;;;;;;;;;;4965773;28;20183;-52
2022/10/15 04:33:16;;;;;;;9.60;8.80;;;;;;;;;;4980471;28;20192;-53
2022/10/15 04:35:42;;;;;;;8.27;7.57;;;;;;;;;;4967192;28;20654;-53
2022/10/15 04:38:08;;;;;;;8.23;7.37;;;;;;;;;;4973947;28;20183;-53
2022/10/15 04:40:34;;;;;;;8.00;7.30;;;;;;;;;;4968956;28;20183;-53
2022/10/15 04:43:00;;;;;;;8.37;7.67;;;;;;;;;;4978953;28;20245;-53
2022/10/15 04:45:26;;;;;;;11.17;8.97;;;;;;;;;;4973091;28;20192;-53
2022/10/15 04:47:53;;;;;;;9.20;8.40;;;;;;;;;;4984345;28;20669;-53
2022/10/15 04:50:19;;;;;;;9.27;8.40;;;;;;;;;;4976421;28;20182;-53
2022/10/15 04:52:45;;;;;;;9.50;8.50;;;;;;;;;;4969035;28;20186;-53
2022/10/15 04:55:11;;;;;;;9.67;8.77;;;;;;;;;;4980729;28;20202;-53
2022/10/15 04:57:37;;;;;;;10.53;8.07;;;;;;;;;;4975745;28;20188;-53
2022/10/15 05:00:03;;;;;;;8.70;7.90;;;;;;;;;;4980548;28;20195;-53
2022/10/15 05:02:31;;;;;;;9.47;8.57;;;;;;;;;;4979829;28;20544;-53
2022/10/15 05:04:58;;;;;;;9.23;8.33;;;;;;;;;;4978489;28;20241;-52
2022/10/15 05:07:24;;;;;;;9.80;8.90;;;;;;;;;;4983256;28;20218;-52
2022/10/15 05:09:51;;;;;;;8.73;7.93;;;;;;;;;;4985264;28;20175;-53
2022/10/15 05:12:17;;;;;;;9.57;8.67;;;;;;;;;;4986071;28;20183;-52
2022/10/15 05:14:43;;;;;;;8.57;7.67;;;;;;;;;;4986292;28;20210;-52
2022/10/15 05:17:09;;;;;;;9.20;8.33;;;;;;;;;;4968712;28;20219;-53
2022/10/15 05:19:35;;;;;;;9.97;9.07;;;;;;;;;;4986304;28;20183;-52
2022/10/15 05:22:01;;;;;;;11.07;9.33;;;;;;;;;;4984808;28;20266;-53
2022/10/15 05:24:27;;;;;;;8.90;8.00;;;;;;;;;;4968799;28;20183;-53
2022/10/15 05:26:53;;;;;;;8.80;8.00;;;;;;;;;;4985561;28;20294;-52
2022/10/15 05:29:19;;;;;;;9.00;8.20;;;;;;;;;;4989298;28;20180;-53
2022/10/15 05:31:45;;;;;;;8.30;7.60;;;;;;;;;;4986552;28;20183;-52
2022/10/15 05:34:12;;;;;;;8.60;7.90;;;;;;;;;;4987255;28;20442;-52
2022/10/15 05:36:38;;;;;;;8.67;7.83;;;;;;;;;;4984844;28;20608;-53
2022/10/15 05:39:09;;;;;;;8.23;7.53;;;;;;;;;;4987873;28;20527;-53
2022/10/15 05:41:35;;;;;;;8.87;8.03;;;;;;;;;;4986635;28;20191;-52
2022/10/15 05:44:01;;;;;;;8.30;7.50;;;;;;;;;;4985852;28;20277;-53
2022/10/15 05:46:27;;;;;;;8.73;7.93;;;;;;;;;;4986090;28;20569;-52
2022/10/15 05:49:01;;;;;;;8.73;8.03;;;;;;;;;;4984591;28;20713;-52
2022/10/15 05:51:27;;;;;;;10.33;7.73;;;;;;;;;;4981609;28;20203;-53
2022/10/15 05:53:54;;;;;;;9.33;8.53;;;;;;;;;;4987524;28;20262;-52
2022/10/15 05:56:21;;;;;;;8.97;8.07;;;;;;;;;;4969829;28;20218;-53
2022/10/15 05:58:47;;;;;;;9.90;8.30;;;;;;;;;;4984901;28;20270;-52
2022/10/15 06:01:13;;;;;;;8.87;8.10;;;;;;;;;;4968827;28;20194;-52
2022/10/15 06:03:40;;;;;;;8.77;7.90;;;;;;;;;;4986346;28;20179;-52
2022/10/15 06:06:17;;;;;;;8.10;7.33;;;;;;;;;;4969912;28;20242;-52
2022/10/15 06:08:43;;;;;;;7.40;6.70;;;;;;;;;;4986379;28;20529;-52
2022/10/15 06:11:10;;;;;;;8.63;7.83;;;;;;;;;;4983663;28;20190;-52
2022/10/15 06:13:38;;;;;;;7.40;6.43;;;;;;;;;;4974222;28;20627;-52
2022/10/15 06:16:04;;;;;;;9.77;8.77;;;;;;;;;;4968881;28;20245;-52
2022/10/15 06:18:31;;;;;;;9.13;8.23;;;;;;;;;;4990482;28;20221;-52
2022/10/15 06:20:57;;;;;;;8.37;7.57;;;;;;;;;;4984660;28;20175;-53
2022/10/15 06:23:23;;;;;;;8.50;7.13;;;;;;;;;;4989252;28;20613;-53
2022/10/15 06:25:49;;;;;;;8.20;7.50;;;;;;;;;;4989419;28;20238;-53
2022/10/15 06:28:15;;;;;;;8.27;7.50;;;;;;;;;;4989890;28;20192;-53
2022/10/15 06:30:42;;;;;;;9.63;8.60;;;;;;;;;;4989004;28;20187;-52
2022/10/15 06:33:08;;;;;;;9.07;8.20;;;;;;;;;;4986521;28;20546;-53
2022/10/15 06:35:34;;;;;;;10.00;8.97;;;;;;;;;;4988338;28;20586;-53
2022/10/15 06:38:04;;;;;;;9.77;8.87;;;;;;;;;;4963555;28;20553;-52
2022/10/15 06:40:31;;;;;;;11.63;10.40;;;;;;;;;;4987936;28;20425;-53
2022/10/15 06:43:07;;;;;;;12.33;11.03;;;;;;;;;;4981334;28;20625;-53
2022/10/15 06:45:35;;;;;;;12.63;10.60;;;;;;;;;;4988239;28;20246;-52
2022/10/15 06:48:01;;;;;;;13.00;10.17;;;;;;;;;;4984052;28;20715;-53
2022/10/15 06:50:27;;;;;;;17.17;11.03;;;;;;;;;;4989068;28;20579;-53
2022/10/15 06:52:53;;;;;;;12.30;10.50;;;;;;;;;;4989233;28;20184;-53
2022/10/15 06:55:19;;;;;;;12.70;11.47;;;;;;;;;;4966110;28;20232;-53
2022/10/15 06:57:45;;;;;;;12.17;10.80;;;;;;;;;;4988282;28;20618;-52
2022/10/15 07:00:12;;;;;;;12.00;10.80;;;;;;;;;;4985343;28;20179;-53
2022/10/15 07:02:38;;;;;;;12.43;11.00;;;;;;;;;;4987975;28;20194;-53
2022/10/15 07:05:07;;;;;;;13.37;12.07;;;;;;;;;;4968422;28;20230;-53
2022/10/15 07:07:33;;;;;;;16.10;11.87;;;;;;;;;;4987357;28;20211;-52
2022/10/15 07:09:59;;;;;;;13.97;12.57;;;;;;;;;;4985707;28;20263;-53
2022/10/15 07:12:25;;;;;;;14.10;12.70;;;;;;;;;;4987873;28;20187;-52
2022/10/15 07:14:51;;;;;;;12.90;11.60;;;;;;;;;;4987900;28;20461;-53
2022/10/15 07:17:18;;;;;;;19.07;14.17;;;;;;;;;;4988535;28;20205;-53
2022/10/15 07:19:44;;;;;;;14.93;13.43;;;;;;;;;;4984254;28;20187;-52
2022/10/15 07:22:10;;;;;;;15.10;13.50;;;;;;;;;;4986983;28;20202;-53
2022/10/15 07:24:37;;;;;;;15.90;14.27;;;;;;;;;;4986411;28;20630;-53
2022/10/15 07:27:03;;;;;;;16.30;14.57;;;;;;;;;;4970249;28;20556;-53
2022/10/15 07:29:30;;;;;;;16.03;14.43;;;;;;;;;;4988591;28;20210;-52
2022/10/15 07:31:56;;;;;;;16.67;13.77;;;;;;;;;;4987853;28;20190;-52
2022/10/15 07:34:22;;;;;;;16.53;14.53;;;;;;;;;;4986699;28;20614;-54
2022/10/15 07:36:49;;;;;;;15.63;13.07;;;;;;;;;;4967705;28;20198;-53
2022/10/15 07:39:17;;;;;;;15.67;13.97;;;;;;;;;;4988146;28;20202;-53
2022/10/15 07:41:44;;;;;;;15.63;13.23;;;;;;;;;;4968996;28;20271;-52
2022/10/15 07:44:10;;;;;;;17.67;14.43;;;;;;;;;;4988444;28;20469;-53
2022/10/15 07:46:43;;;;;;;15.93;13.77;;;;;;;;;;4987121;28;20236;-53
2022/10/15 07:49:10;;;;;;;16.93;14.97;;;;;;;;;;4961474;28;20649;-52
2022/10/15 07:51:36;;;;;;;16.07;14.10;;;;;;;;;;4985807;28;20222;-53
2022/10/15 07:54:02;;;;;;;16.50;14.53;;;;;;;;;;4987045;28;20748;-52
2022/10/15 07:56:34;;;;;;;17.13;14.77;;;;;;;;;;4970760;28;20531;-52
2022/10/15 07:59:01;;;;;;;18.00;14.53;;;;;;;;;;4981682;28;20183;-54
2022/10/15 08:01:27;;;;;;;17.37;15.47;;;;;;;;;;4982961;28;20191;-52
2022/10/15 08:03:53;;;;;;;16.77;14.67;;;;;;;;;;4983965;28;20184;-53
2022/10/15 08:06:19;;;;;;;15.03;13.47;;;;;;;;;;4969379;28;20633;-52
2022/10/15 08:08:46;;;;;;;16.60;14.80;;;;;;;;;;4985562;28;20175;-53
2022/10/15 08:11:13;;;;;;;16.27;14.57;;;;;;;;;;4984908;28;20657;-53
2022/10/15 08:13:41;;;;;;;16.80;14.73;;;;;;;;;;4985477;28;20660;-53
2022/10/15 08:16:07;;;;;;;17.13;15.33;;;;;;;;;;4983381;28;20505;-54
2022/10/15 08:18:35;;;;;;;16.00;14.30;;;;;;;;;;4984947;28;20194;-53
2022/10/15 08:21:01;;;;;;;19.93;16.90;;;;;;;;;;4965557;28;20199;-54
2022/10/15 08:23:27;;;;;;;17.30;15.17;;;;;;;;;;4981962;28;20179;-53
2022/10/15 08:25:54;;;;;;;16.10;14.10;;;;;;;;;;4981779;28;20238;-54
2022/10/15 08:28:20;;;;;;;16.40;14.70;;;;;;;;;;4984245;28;20279;-53
2022/10/15 08:30:46;;;;;;;17.37;14.67;;;;;;;;;;4985515;28;20226;-54
2022/10/15 08:33:12;;;;;;;16.00;14.07;;;;;;;;;;4986804;28;20557;-54
2022/10/15 08:35:40;;;;;;;14.10;12.63;;;;;;;;;;4980195;28;20186;-54
2022/10/15 08:38:06;;;;;;;14.30;12.90;;;;;;;;;;4969141;28;20187;-54
2022/10/15 08:40:32;;;;;;;14.87;13.27;;;;;;;;;;4987436;28;20198;-53
2022/10/15 08:42:58;;;;;;;17.03;13.10;;;;;;;;;;4986184;28;20214;-54
2022/10/15 08:45:25;;;;;;;13.90;12.50;;;;;;;;;;4985497;28;20187;-53
2022/10/15 08:47:53;;;;;;;14.90;10.77;;;;;;;;;;4968765;28;20583;-54
2022/10/15 08:50:26;;;;;;;13.80;11.23;;;;;;;;;;4968497;28;20183;-53
2022/10/15 08:52:53;;;;;;;11.90;10.70;;;;;;;;;;4986103;28;20431;-55
2022/10/15 08:55:21;;;;;;;15.43;12.43;;;;;;;;;;4967355;28;20214;-52
2022/10/15 08:57:50;;;;;;;15.27;10.90;;;;;;;;;;4986010;28;20261;-53
2022/10/15 09:00:19;;;;;;;10.33;9.23;;;;;;;;;;4985695;28;20183;-51
2022/10/15 09:02:50;;;;;;;11.03;9.77;;;;;;;;;;4984589;28;20258;-53
2022/10/15 09:05:19;;;;;;;10.53;9.23;;;;;;;;;;4965776;28;20706;-52
2022/10/15 09:08:04;;;;;;;10.00;7.93;;;;;;;;;;4983387;28;20214;-52
2022/10/15 09:10:34;;;;;;;10.00;7.00;;;;;;;;;;4985929;28;20381;-52
2022/10/15 09:13:21;;;;;;;8.00;7.20;;;;;;;;;;4969073;28;20190;-52
2022/10/15 09:15:51;;;;;;;9.87;7.27;;;;;;;;;;4984872;28;20638;-52
2022/10/15 09:18:22;;;;;;;6.57;6.00;;;;;;;;;;4986571;28;20184;-52
2022/10/15 09:20:49;;;;;;;5.53;5.03;;;;;;;;;;4984635;28;20261;-53
2022/10/15 09:23:19;;;;;;;6.27;5.13;;;;;;;;;;4984648;28;20215;-52
2022/10/15 09:25:49;;;;;;;4.90;4.50;;;;;;;;;;4982358;28;20674;-53
2022/10/15 09:28:18;;;;;;;3.97;3.67;;;;;;;;;;4969635;28;20187;-52
2022/10/15 09:30:50;;;;;;;3.77;3.47;;;;;;;;;;4984209;28;20266;-52
2022/10/15 09:33:16;;;;;;;4.17;3.73;;;;;;;;;;4964782;28;20192;-53
2022/10/15 09:36:01;;;;;;;4.57;3.40;;;;;;;;;;4985965;28;20552;-53
2022/10/15 09:38:33;;;;;;;3.40;3.10;;;;;;;;;;4987174;28;20185;-53
2022/10/15 09:41:03;;;;;;;3.57;3.27;;;;;;;;;;4965104;28;20552;-53
2022/10/15 09:43:36;;;;;;;3.63;3.27;;;;;;;;;;4970202;28;20184;-53
2022/10/15 09:46:03;;;;;;;3.50;2.70;;;;;;;;;;4982113;28;20493;-53
2022/10/15 09:48:35;;;;;;;3.20;3.00;;;;;;;;;;4972908;28;20185;-53
2022/10/15 09:51:11;;;;;;;3.00;2.80;;;;;;;;;;4987863;28;20606;-53
2022/10/15 09:53:40;;;;;;;3.13;2.83;;;;;;;;;;4989900;28;20187;-53
2022/10/15 09:56:22;;;;;;;2.27;2.13;;;;;;;;;;4989670;28;20665;-52
2022/10/15 09:58:48;;;;;;;2.77;2.33;;;;;;;;;;4987499;28;20214;-53
2022/10/15 10:01:19;;;;;;;2.97;1.87;;;;;;;;;;4991051;28;20193;-53
2022/10/15 10:03:48;;;;;;;2.63;2.43;;;;;;;;;;4988640;28;20630;-54
2022/10/15 10:06:14;;;;;;;1.87;1.77;;;;;;;;;;4969487;28;20230;-54
2022/10/15 10:08:46;;;;;;;3.03;1.60;;;;;;;;;;4967027;28;20191;-54
2022/10/15 10:11:13;;;;;;;2.00;1.90;;;;;;;;;;4989369;28;20179;-54
2022/10/15 10:13:41;;;;;;;2.50;1.67;;;;;;;;;;4994628;28;20601;-55
2022/10/15 10:16:11;;;;;;;14.33;2.00;;;;;;;;;;4995741;28;20230;-55
2022/10/15 10:18:38;;;;;;;2.07;1.87;;;;;;;;;;4992435;28;20653;-54
2022/10/15 10:21:05;;;;;;;1.50;1.40;;;;;;;;;;4995649;28;20712;-54
2022/10/15 10:23:36;;;;;;;2.30;2.10;;;;;;;;;;4991178;28;20175;-54
2022/10/15 10:26:09;;;;;;;2.30;2.10;;;;;;;;;;4991517;28;20208;-54
2022/10/15 10:28:51;;;;;;;1.87;1.77;;;;;;;;;;4991972;28;20186;-55
2022/10/15 10:31:17;;;;;;;1.47;1.37;;;;;;;;;;4991678;28;20184;-55
2022/10/15 10:33:47;;;;;;;1.30;1.20;;;;;;;;;;5010891;28;20162;-55
2022/10/15 10:36:27;;;;;;;1.70;1.60;;;;;;;;;;5003980;28;20199;-54
2022/10/15 10:39:14;;;;;;;1.60;1.30;;;;;;;;;;4991206;28;20172;-54
2022/10/15 10:41:57;;;;;;;1.70;1.60;;;;;;;;;;5010271;28;20653;-55
2022/10/15 10:44:27;;;;;;;1.43;1.33;;;;;;;;;;5009821;28;20159;-54
2022/10/15 10:47:06;;;;;;;1.40;1.30;;;;;;;;;;4991450;28;20195;-55
2022/10/15 10:49:32;;;;;;;1.50;1.40;;;;;;;;;;4991153;28;20175;-54
2022/10/15 10:51:59;;;;;;;2.10;1.60;;;;;;;;;;4990614;28;20200;-55
2022/10/15 10:54:26;;;;;;;1.63;1.53;;;;;;;;;;4990925;28;20174;-55
2022/10/15 10:56:52;;;;;;;1.60;1.50;;;;;;;;;;4990630;28;20167;-55
2022/10/15 10:59:30;;;;;;;1.50;1.40;;;;;;;;;;4989700;28;20178;-56
2022/10/15 11:01:57;;;;;;;1.57;1.47;;;;;;;;;;5010621;28;20236;-55
2022/10/15 11:04:27;;;;;;;1.60;1.50;;;;;;;;;;4992328;28;20626;-55
2022/10/15 11:06:59;;;;;;;1.93;1.83;;;;;;;;;;4970639;28;20289;-55
2022/10/15 11:09:40;;;;;;;2.87;1.90;;;;;;;;;;4971103;28;20170;-55
2022/10/15 11:12:16;;;;;;;1.93;1.83;;;;;;;;;;4986129;28;20175;-54
2022/10/15 11:14:45;;;;;;;1.50;1.40;;;;;;;;;;4967818;28;20187;-57
2022/10/15 11:17:25;;;;;;;1.80;1.70;;;;;;;;;;4970303;28;20172;-55
2022/10/15 11:20:02;;;;;;;1.90;1.80;;;;;;;;;;4970852;28;20174;-55
2022/10/15 11:22:47;;;;;;;1.93;1.83;;;;;;;;;;4970563;28;20246;-55
2022/10/15 11:25:45;;;;;;;1.50;1.40;;;;;;;;;;4970727;28;20608;-55
2022/10/15 11:28:35;;;;;;;1.50;1.40;;;;;;;;;;4948588;28;21024;-57
2022/10/15 11:31:04;;;;;;;1.53;1.43;;;;;;;;;;4971050;28;20172;-55
2022/10/15 11:33:44;;;;;;;1.90;1.80;;;;;;;;;;4969966;28;20529;-55
2022/10/15 11:36:30;;;;;;;3.43;1.80;;;;;;;;;;4972793;28;20661;-55
2022/10/15 11:39:06;;;;;;;2.63;2.17;;;;;;;;;;4970861;28;20178;-55
2022/10/15 11:41:33;;;;;;;4.53;1.80;;;;;;;;;;4968897;28;20175;-55
2022/10/15 11:44:25;;;;;;;2.00;1.90;;;;;;;;;;4969428;28;20168;-55
2022/10/15 11:46:58;;;;;;;2.47;1.67;;;;;;;;;;4990462;28;20191;-56
2022/10/15 11:49:43;;;;;;;1.97;1.87;;;;;;;;;;4970761;28;20260;-55
2022/10/15 11:52:27;;;;;;;1.73;1.63;;;;;;;;;;4970261;28;20267;-55
2022/10/15 11:55:30;;;;;;;2.30;2.10;;;;;;;;;;4968097;28;20282;-56
2022/10/15 11:57:59;;;;;;;2.40;2.30;;;;;;;;;;4922171;29;20278;-55
2022/10/15 12:00:33;;;;;;;4.50;2.00;;;;;;;;;;4963498;28;20557;-54
2022/10/15 12:03:03;;;;;;;1.93;1.73;;;;;;;;;;4969169;28;20213;-55
2022/10/15 12:05:41;;;;;;;2.43;2.00;;;;;;;;;;4987754;28;20228;-54
2022/10/15 12:08:12;;;;;;;1.90;1.80;;;;;;;;;;4991833;28;20245;-56
2022/10/15 12:10:41;;;;;;;1.80;1.70;;;;;;;;;;4990743;28;20182;-55
2022/10/15 12:13:08;;;;;;;2.80;2.00;;;;;;;;;;4991737;28;20834;-55
2022/10/15 12:15:40;;;;;;;4.17;2.00;;;;;;;;;;5008897;28;20197;-56
2022/10/15 12:18:22;;;;;;;1.90;1.80;;;;;;;;;;5009550;28;20182;-55
2022/10/15 12:20:48;;;;;;;1.83;1.73;;;;;;;;;;4990219;28;20184;-55
2022/10/15 12:23:34;;;;;;;3.13;2.27;;;;;;;;;;5009680;28;20198;-55
2022/10/15 12:26:00;;;;;;;1.70;1.60;;;;;;;;;;5007785;28;20176;-56
2022/10/15 12:28:29;;;;;;;1.80;1.70;;;;;;;;;;4991736;28;20471;-55
2022/10/15 12:31:02;;;;;;;2.10;1.90;;;;;;;;;;5008563;28;20173;-55
2022/10/15 12:33:29;;;;;;;2.60;1.73;;;;;;;;;;4991594;28;20226;-55
2022/10/15 12:36:16;;;;;;;3.07;1.80;;;;;;;;;;4986430;28;20180;-56
2022/10/15 12:38:50;;;;;;;1.90;1.73;;;;;;;;;;4955990;28;20193;-55
2022/10/15 12:41:19;;;;;;;1.83;1.70;;;;;;;;;;4975066;28;20191;-56
2022/10/15 12:43:51;;;;;;;1.70;1.60;;;;;;;;;;4991722;28;20161;-55
2022/10/15 12:46:18;;;;;;;1.37;1.27;;;;;;;;;;4974665;28;20205;-55
2022/10/15 12:48:45;;;;;;;1.67;1.57;;;;;;;;;;4971670;28;20196;-55
2022/10/15 12:51:14;;;;;;;1.80;1.70;;;;;;;;;;5007398;28;20205;-56
2022/10/15 12:53:45;;;;;;;2.00;1.80;;;;;;;;;;5009055;28;20166;-55
2022/10/15 12:56:13;;;;;;;1.50;1.40;;;;;;;;;;4989447;28;20216;-55
2022/10/15 12:58:50;;;;;;;1.80;1.70;;;;;;;;;;4979587;28;20193;-55
2022/10/15 13:01:20;;;;;;;2.07;1.57;;;;;;;;;;4990379;28;20218;-55
2022/10/15 13:03:52;;;;;;;1.87;1.77;;;;;;;;;;5008761;28;20173;-55
2022/10/15 13:06:24;;;;;;;2.37;2.00;;;;;;;;;;4990459;28;20230;-55
2022/10/15 13:09:08;;;;;;;2.20;2.00;;;;;;;;;;5008424;28;20641;-55
2022/10/15 13:11:42;;;;;;;2.43;2.20;;;;;;;;;;5008118;28;20173;-55
2022/10/15 13:14:08;;;;;;;3.47;1.90;;;;;;;;;;4989680;28;20170;-56
2022/10/15 13:16:35;;;;;;;2.17;1.97;;;;;;;;;;4988812;28;20346;-54
2022/10/15 13:19:02;;;;;;;2.00;1.90;;;;;;;;;;5008247;28;20179;-55
2022/10/15 13:21:51;;;;;;;2.27;2.10;;;;;;;;;;5008905;28;20222;-55
2022/10/15 13:24:18;;;;;;;1.97;1.87;;;;;;;;;;5011783;28;20630;-55
2022/10/15 13:26:45;;;;;;;2.40;2.20;;;;;;;;;;4996654;28;20297;-55
2022/10/15 13:29:15;;;;;;;2.20;2.00;;;;;;;;;;4975428;28;20203;-55
2022/10/15 13:31:43;;;;;;;2.50;1.87;;;;;;;;;;5011675;28;20178;-55
2022/10/15 13:34:23;;;;;;;1.97;1.80;;;;;;;;;;4998902;28;20191;-54
2022/10/15 13:36:58;;;;;;;2.03;1.93;;;;;;;;;;4987469;28;20184;-53
2022/10/15 13:39:25;;;;;;;5.13;2.20;;;;;;;;;;4972365;28;20657;-54
2022/10/15 13:41:52;;;;;;;3.07;2.10;;;;;;;;;;4984947;28;20219;-56
2022/10/15 13:44:23;;;;;;;2.90;2.50;;;;;;;;;;4974965;28;20513;-55
2022/10/15 13:46:49;;;;;;;2.90;2.20;;;;;;;;;;4973086;28;20305;-55
2022/10/15 13:49:18;;;;;;;2.93;2.20;;;;;;;;;;4957197;28;20207;-57
2022/10/15 13:51:47;;;;;;;2.00;1.90;;;;;;;;;;4971916;28;20234;-55
2022/10/15 13:54:20;;;;;;;2.97;2.33;;;;;;;;;;4973237;28;20194;-55
2022/10/15 13:56:50;;;;;;;3.70;2.60;;;;;;;;;;4972817;28;20190;-55
2022/10/15 13:59:18;;;;;;;4.03;2.53;;;;;;;;;;4973685;28;20622;-55
2022/10/15 14:01:46;;;;;;;3.53;2.43;;;;;;;;;;4972949;28;20193;-55
2022/10/15 14:04:17;;;;;;;4.43;3.37;;;;;;;;;;4990894;28;20700;-55
2022/10/15 14:06:55;;;;;;;2.33;2.17;;;;;;;;;;4972391;28;20220;-55
2022/10/15 14:09:25;;;;;;;2.80;2.57;;;;;;;;;;4967749;28;20203;-55
2022/10/15 14:11:52;;;;;;;2.37;2.17;;;;;;;;;;4953971;28;20172;-55
2022/10/15 14:14:31;;;;;;;2.50;2.30;;;;;;;;;;4971607;28;20199;-55
2022/10/15 14:16:58;;;;;;;2.30;2.20;;;;;;;;;;4966194;28;20238;-55
2022/10/15 14:19:28;;;;;;;2.90;2.30;;;;;;;;;;4953207;28;20180;-55
2022/10/15 14:21:59;;;;;;;3.20;2.50;;;;;;;;;;4970116;28;20591;-56
2022/10/15 14:24:34;;;;;;;2.50;2.30;;;;;;;;;;4970629;28;20259;-55
2022/10/15 14:27:01;;;;;;;2.67;2.23;;;;;;;;;;4953143;28;20612;-55
2022/10/15 14:29:35;;;;;;;2.50;2.30;;;;;;;;;;4953305;28;20168;-56
2022/10/15 14:32:01;;;;;;;2.50;2.27;;;;;;;;;;4953834;28;20561;-55
2022/10/15 14:34:29;;;;;;;2.73;2.33;;;;;;;;;;4970252;28;20164;-55
2022/10/15 14:36:56;;;;;;;3.37;2.60;;;;;;;;;;4968393;28;20242;-55
2022/10/15 14:39:33;;;;;;;3.63;2.67;;;;;;;;;;4970963;28;20168;-55
2022/10/15 14:42:01;;;;;;;4.07;2.93;;;;;;;;;;4972542;28;20611;-55
2022/10/15 14:44:40;;;;;;;4.93;3.03;;;;;;;;;;4953871;28;20198;-56
2022/10/15 14:47:10;;;;;;;3.67;2.90;;;;;;;;;;4970823;28;20573;-55
2022/10/15 14:49:36;;;;;;;3.53;2.90;;;;;;;;;;4955029;28;20176;-55
2022/10/15 14:52:19;;;;;;;3.27;2.97;;;;;;;;;;4970146;28;21702;-55